sensor_id;sensor_type;location;lat;lon;timestamp;temperature;humidity
18408;DHT22;9330;52.210;21.174;2023-04-25T00:02:15;11.70;99.90
18408;DHT22;9330;52.210;21.174;2023-04-25T00:04:42;11.50;99.90
18408;DHT22;9330;52.210;21.174;2023-04-25T00:07:09;11.40;99.90
18408;DHT22;9330;52.210;21.174;2023-04-25T00:09:36;11.40;99.90
18408;DHT22;9330;52.210;21.174;2023-04-25T00:12:03;11.50;99.90
18408;DHT22;9330;52.210;21.174;2023-04-25T00:14:30;11.30;99.90
18408;DHT22;9330;52.210;21.174;2023-04-25T00:17:01;11.20;99.90
18408;DHT22;9330;52.210;21.174;2023-04-25T00:19:28;11.20;99.90
18408;DHT22;9330;52.210;21.174;2023-04-25T00:21:55;11.20;99.90
18408;DHT22;9330;52.210;21.174;2023-04-25T00:24:23;11.10;99.90
18408;DHT22;9330;52.210;21.174;2023-04-25T00:26:50;11.00;99.90
18408;DHT22;9330;52.210;21.174;2023-04-25T00:29:17;11.00;99.90
18408;DHT22;9330;52.210;21.174;2023-04-25T00:31:44;11.00;99.90
18408;DHT22;9330;52.210;21.174;2023-04-25T00:34:12;10.90;99.90
18408;DHT22;9330;52.210;21.174;2023-04-25T00:36:39;11.00;99.90
18408;DHT22;9330;52.210;21.174;2023-04-25T00:39:06;11.00;99.90
18408;DHT22;9330;52.210;21.174;2023-04-25T00:41:33;10.90;99.90
18408;DHT22;9330;52.210;21.174;2023-04-25T00:44:00;10.90;99.90
18408;DHT22;9330;52.210;21.174;2023-04-25T00:46:28;10.90;99.90
18408;DHT22;9330;52.210;21.174;2023-04-25T00:48:55;10.90;99.90
18408;DHT22;9330;52.210;21.174;2023-04-25T00:51:24;11.00;99.90
18408;DHT22;9330;52.210;21.174;2023-04-25T00:53:52;10.90;99.90
18408;DHT22;9330;52.210;21.174;2023-04-25T00:56:19;10.90;99.90
18408;DHT22;9330;52.210;21.174;2023-04-25T00:58:48;10.90;99.90
18408;DHT22;9330;52.210;21.174;2023-04-25T01:01:15;10.90;99.90
18408;DHT22;9330;52.210;21.174;2023-04-25T01:03:43;10.90;99.90
18408;DHT22;9330;52.210;21.174;2023-04-25T01:06:12;10.90;99.90
18408;DHT22;9330;52.210;21.174;2023-04-25T01:08:40;10.90;99.90
18408;DHT22;9330;52.210;21.174;2023-04-25T01:11:07;10.80;99.90
18408;DHT22;9330;52.210;21.174;2023-04-25T01:13:35;10.80;99.90
18408;DHT22;9330;52.210;21.174;2023-04-25T01:16:03;10.70;99.90
18408;DHT22;9330;52.210;21.174;2023-04-25T01:18:30;10.80;99.90
18408;DHT22;9330;52.210;21.174;2023-04-25T01:21:02;10.70;99.90
18408;DHT22;9330;52.210;21.174;2023-04-25T01:23:31;11.00;99.90
18408;DHT22;9330;52.210;21.174;2023-04-25T01:25:59;10.70;99.90
18408;DHT22;9330;52.210;21.174;2023-04-25T01:28:26;10.70;99.90
18408;DHT22;9330;52.210;21.174;2023-04-25T01:30:54;10.70;99.90
18408;DHT22;9330;52.210;21.174;2023-04-25T01:33:21;10.70;99.90
18408;DHT22;9330;52.210;21.174;2023-04-25T01:35:48;10.70;99.90
18408;DHT22;9330;52.210;21.174;2023-04-25T01:38:16;10.70;99.90
18408;DHT22;9330;52.210;21.174;2023-04-25T01:40:45;10.60;99.90
18408;DHT22;9330;52.210;21.174;2023-04-25T01:43:12;10.60;99.90
18408;DHT22;9330;52.210;21.174;2023-04-25T01:45:40;10.70;99.90
18408;DHT22;9330;52.210;21.174;2023-04-25T01:48:07;10.80;99.90
18408;DHT22;9330;52.210;21.174;2023-04-25T01:50:34;10.60;99.90
18408;DHT22;9330;52.210;21.174;2023-04-25T01:53:01;10.80;99.90
18408;DHT22;9330;52.210;21.174;2023-04-25T01:55:29;10.50;99.90
18408;DHT22;9330;52.210;21.174;2023-04-25T01:57:56;10.50;99.90
18408;DHT22;9330;52.210;21.174;2023-04-25T02:00:24;10.50;99.90
18408;DHT22;9330;52.210;21.174;2023-04-25T02:02:51;10.40;99.90
18408;DHT22;9330;52.210;21.174;2023-04-25T02:05:19;10.40;99.90
18408;DHT22;9330;52.210;21.174;2023-04-25T02:07:47;10.30;99.90
18408;DHT22;9330;52.210;21.174;2023-04-25T02:10:14;10.40;99.90
18408;DHT22;9330;52.210;21.174;2023-04-25T02:12:42;10.40;99.90
18408;DHT22;9330;52.210;21.174;2023-04-25T02:15:10;10.30;99.90
18408;DHT22;9330;52.210;21.174;2023-04-25T02:17:37;10.30;99.90
18408;DHT22;9330;52.210;21.174;2023-04-25T02:20:05;10.40;99.90
18408;DHT22;9330;52.210;21.174;2023-04-25T02:22:33;10.30;99.90
18408;DHT22;9330;52.210;21.174;2023-04-25T02:25:01;10.40;99.90
18408;DHT22;9330;52.210;21.174;2023-04-25T02:27:29;10.40;99.90
18408;DHT22;9330;52.210;21.174;2023-04-25T02:29:57;10.40;99.90
18408;DHT22;9330;52.210;21.174;2023-04-25T02:32:24;10.50;99.90
18408;DHT22;9330;52.210;21.174;2023-04-25T02:34:51;10.50;99.90
18408;DHT22;9330;52.210;21.174;2023-04-25T02:37:18;10.60;99.90
18408;DHT22;9330;52.210;21.174;2023-04-25T02:39:45;10.50;99.90
18408;DHT22;9330;52.210;21.174;2023-04-25T02:42:12;10.90;99.90
18408;DHT22;9330;52.210;21.174;2023-04-25T02:44:39;10.50;99.90
18408;DHT22;9330;52.210;21.174;2023-04-25T02:47:07;10.60;99.90
18408;DHT22;9330;52.210;21.174;2023-04-25T02:49:34;10.50;99.90
18408;DHT22;9330;52.210;21.174;2023-04-25T02:52:01;10.50;99.90
18408;DHT22;9330;52.210;21.174;2023-04-25T02:54:28;10.60;99.90
18408;DHT22;9330;52.210;21.174;2023-04-25T02:56:54;10.60;99.90
18408;DHT22;9330;52.210;21.174;2023-04-25T02:59:21;10.60;99.90
18408;DHT22;9330;52.210;21.174;2023-04-25T03:01:49;10.60;99.90
18408;DHT22;9330;52.210;21.174;2023-04-25T03:04:17;10.60;99.90
18408;DHT22;9330;52.210;21.174;2023-04-25T03:06:44;10.70;99.90
18408;DHT22;9330;52.210;21.174;2023-04-25T03:09:11;10.80;99.90
18408;DHT22;9330;52.210;21.174;2023-04-25T03:11:38;10.90;99.90
18408;DHT22;9330;52.210;21.174;2023-04-25T03:14:05;10.70;99.90
18408;DHT22;9330;52.210;21.174;2023-04-25T03:16:32;10.90;99.90
18408;DHT22;9330;52.210;21.174;2023-04-25T03:18:59;11.00;99.90
18408;DHT22;9330;52.210;21.174;2023-04-25T03:21:27;10.70;99.90
18408;DHT22;9330;52.210;21.174;2023-04-25T03:23:54;10.70;99.90
18408;DHT22;9330;52.210;21.174;2023-04-25T03:26:21;10.90;99.90
18408;DHT22;9330;52.210;21.174;2023-04-25T03:28:48;10.90;99.90
18408;DHT22;9330;52.210;21.174;2023-04-25T03:31:15;10.80;99.90
18408;DHT22;9330;52.210;21.174;2023-04-25T03:33:42;10.80;99.90
18408;DHT22;9330;52.210;21.174;2023-04-25T03:36:09;10.70;99.90
18408;DHT22;9330;52.210;21.174;2023-04-25T03:38:37;10.80;99.90
18408;DHT22;9330;52.210;21.174;2023-04-25T03:41:04;10.70;99.90
18408;DHT22;9330;52.210;21.174;2023-04-25T03:43:31;10.80;99.90
18408;DHT22;9330;52.210;21.174;2023-04-25T03:45:58;10.80;99.90
18408;DHT22;9330;52.210;21.174;2023-04-25T03:48:25;10.80;99.90
18408;DHT22;9330;52.210;21.174;2023-04-25T03:50:52;10.90;99.90
18408;DHT22;9330;52.210;21.174;2023-04-25T03:53:20;10.90;99.90
18408;DHT22;9330;52.210;21.174;2023-04-25T03:55:48;10.90;99.90
18408;DHT22;9330;52.210;21.174;2023-04-25T03:58:15;11.10;99.90
18408;DHT22;9330;52.210;21.174;2023-04-25T04:00:42;11.10;99.90
18408;DHT22;9330;52.210;21.174;2023-04-25T04:03:09;11.10;99.90
18408;DHT22;9330;52.210;21.174;2023-04-25T04:05:37;11.30;99.90
18408;DHT22;9330;52.210;21.174;2023-04-25T04:08:05;11.20;99.90
18408;DHT22;9330;52.210;21.174;2023-04-25T04:10:32;11.30;99.90
18408;DHT22;9330;52.210;21.174;2023-04-25T04:13:01;11.30;99.90
18408;DHT22;9330;52.210;21.174;2023-04-25T04:15:28;11.30;99.90
18408;DHT22;9330;52.210;21.174;2023-04-25T04:17:58;11.40;99.90
18408;DHT22;9330;52.210;21.174;2023-04-25T04:20:28;11.40;99.90
18408;DHT22;9330;52.210;21.174;2023-04-25T04:22:55;11.50;99.90
18408;DHT22;9330;52.210;21.174;2023-04-25T04:25:22;11.50;99.90
18408;DHT22;9330;52.210;21.174;2023-04-25T04:27:50;11.50;99.90
18408;DHT22;9330;52.210;21.174;2023-04-25T04:30:21;11.50;99.90
18408;DHT22;9330;52.210;21.174;2023-04-25T04:32:49;11.50;99.90
18408;DHT22;9330;52.210;21.174;2023-04-25T04:35:17;11.50;99.90
18408;DHT22;9330;52.210;21.174;2023-04-25T04:37:43;11.50;99.90
18408;DHT22;9330;52.210;21.174;2023-04-25T04:40:11;11.60;99.90
18408;DHT22;9330;52.210;21.174;2023-04-25T04:42:40;11.60;99.90
18408;DHT22;9330;52.210;21.174;2023-04-25T04:45:08;11.60;99.90
18408;DHT22;9330;52.210;21.174;2023-04-25T04:47:37;11.60;99.90
18408;DHT22;9330;52.210;21.174;2023-04-25T04:50:05;11.60;99.90
18408;DHT22;9330;52.210;21.174;2023-04-25T04:52:32;11.60;99.90
18408;DHT22;9330;52.210;21.174;2023-04-25T04:54:59;11.60;99.90
18408;DHT22;9330;52.210;21.174;2023-04-25T04:57:27;11.60;99.90
18408;DHT22;9330;52.210;21.174;2023-04-25T04:59:54;11.70;99.90
18408;DHT22;9330;52.210;21.174;2023-04-25T05:02:21;11.70;99.90
18408;DHT22;9330;52.210;21.174;2023-04-25T05:16:53;12.80;99.90
18408;DHT22;9330;52.210;21.174;2023-04-25T05:19:20;11.80;99.90
18408;DHT22;9330;52.210;21.174;2023-04-25T05:21:49;11.80;99.90
18408;DHT22;9330;52.210;21.174;2023-04-25T05:24:16;11.90;99.90
18408;DHT22;9330;52.210;21.174;2023-04-25T05:26:43;11.90;99.90
18408;DHT22;9330;52.210;21.174;2023-04-25T05:29:10;11.90;99.90
18408;DHT22;9330;52.210;21.174;2023-04-25T05:31:37;11.80;99.90
18408;DHT22;9330;52.210;21.174;2023-04-25T05:34:05;11.90;99.90
18408;DHT22;9330;52.210;21.174;2023-04-25T05:36:34;12.00;99.90
18408;DHT22;9330;52.210;21.174;2023-04-25T05:39:01;11.90;99.90
18408;DHT22;9330;52.210;21.174;2023-04-25T05:41:29;11.90;99.90
18408;DHT22;9330;52.210;21.174;2023-04-25T05:43:56;11.80;99.90
18408;DHT22;9330;52.210;21.174;2023-04-25T05:46:23;11.90;99.90
18408;DHT22;9330;52.210;21.174;2023-04-25T05:48:51;11.90;99.90
18408;DHT22;9330;52.210;21.174;2023-04-25T05:51:19;11.90;99.90
18408;DHT22;9330;52.210;21.174;2023-04-25T05:53:46;11.90;99.90
18408;DHT22;9330;52.210;21.174;2023-04-25T05:56:13;11.90;99.90
18408;DHT22;9330;52.210;21.174;2023-04-25T05:58:40;11.90;99.90
18408;DHT22;9330;52.210;21.174;2023-04-25T06:01:07;11.70;99.90
18408;DHT22;9330;52.210;21.174;2023-04-25T06:03:43;11.80;99.90
18408;DHT22;9330;52.210;21.174;2023-04-25T06:06:11;11.90;99.90
18408;DHT22;9330;52.210;21.174;2023-04-25T06:08:40;11.80;99.90
18408;DHT22;9330;52.210;21.174;2023-04-25T06:11:07;11.80;99.90
18408;DHT22;9330;52.210;21.174;2023-04-25T06:13:34;11.80;99.90
18408;DHT22;9330;52.210;21.174;2023-04-25T06:16:01;11.80;99.90
18408;DHT22;9330;52.210;21.174;2023-04-25T06:18:28;11.80;99.90
18408;DHT22;9330;52.210;21.174;2023-04-25T06:20:56;11.70;99.90
18408;DHT22;9330;52.210;21.174;2023-04-25T06:23:23;11.60;99.90
18408;DHT22;9330;52.210;21.174;2023-04-25T06:25:51;11.60;99.90
18408;DHT22;9330;52.210;21.174;2023-04-25T06:28:19;11.80;99.90
18408;DHT22;9330;52.210;21.174;2023-04-25T06:30:48;11.60;99.90
18408;DHT22;9330;52.210;21.174;2023-04-25T06:33:15;11.70;99.90
18408;DHT22;9330;52.210;21.174;2023-04-25T06:35:42;11.60;99.90
18408;DHT22;9330;52.210;21.174;2023-04-25T06:38:09;11.60;99.90
18408;DHT22;9330;52.210;21.174;2023-04-25T06:40:36;11.60;99.90
18408;DHT22;9330;52.210;21.174;2023-04-25T06:43:05;11.50;99.90
18408;DHT22;9330;52.210;21.174;2023-04-25T06:45:34;11.40;99.90
18408;DHT22;9330;52.210;21.174;2023-04-25T06:48:01;11.30;99.90
18408;DHT22;9330;52.210;21.174;2023-04-25T06:50:28;11.20;99.90
18408;DHT22;9330;52.210;21.174;2023-04-25T06:52:55;11.10;99.90
18408;DHT22;9330;52.210;21.174;2023-04-25T06:55:22;11.10;99.90
18408;DHT22;9330;52.210;21.174;2023-04-25T06:57:49;11.10;99.90
18408;DHT22;9330;52.210;21.174;2023-04-25T07:00:18;11.10;99.90
18408;DHT22;9330;52.210;21.174;2023-04-25T07:02:45;11.10;99.90
18408;DHT22;9330;52.210;21.174;2023-04-25T07:05:12;11.20;99.90
18408;DHT22;9330;52.210;21.174;2023-04-25T07:07:39;11.20;99.90
18408;DHT22;9330;52.210;21.174;2023-04-25T07:10:06;11.10;99.90
18408;DHT22;9330;52.210;21.174;2023-04-25T07:12:33;11.20;99.90
18408;DHT22;9330;52.210;21.174;2023-04-25T07:15:00;11.20;99.90
18408;DHT22;9330;52.210;21.174;2023-04-25T07:17:32;11.10;99.90
18408;DHT22;9330;52.210;21.174;2023-04-25T07:20:00;11.10;99.90
18408;DHT22;9330;52.210;21.174;2023-04-25T07:22:27;11.10;99.90
18408;DHT22;9330;52.210;21.174;2023-04-25T07:24:54;10.90;99.90
18408;DHT22;9330;52.210;21.174;2023-04-25T07:27:21;10.90;99.90
18408;DHT22;9330;52.210;21.174;2023-04-25T07:29:48;10.90;99.90
18408;DHT22;9330;52.210;21.174;2023-04-25T07:32:14;10.80;99.90
18408;DHT22;9330;52.210;21.174;2023-04-25T07:34:43;10.70;99.90
18408;DHT22;9330;52.210;21.174;2023-04-25T07:37:10;10.70;99.90
18408;DHT22;9330;52.210;21.174;2023-04-25T07:39:37;10.70;99.90
18408;DHT22;9330;52.210;21.174;2023-04-25T07:42:04;10.60;99.90
18408;DHT22;9330;52.210;21.174;2023-04-25T07:44:33;10.60;99.90
18408;DHT22;9330;52.210;21.174;2023-04-25T07:47:04;10.60;99.90
18408;DHT22;9330;52.210;21.174;2023-04-25T07:49:32;10.60;99.90
18408;DHT22;9330;52.210;21.174;2023-04-25T07:52:01;10.60;99.90
18408;DHT22;9330;52.210;21.174;2023-04-25T07:54:28;10.70;99.90
18408;DHT22;9330;52.210;21.174;2023-04-25T07:56:55;10.60;99.90
18408;DHT22;9330;52.210;21.174;2023-04-25T07:59:22;10.70;99.90
18408;DHT22;9330;52.210;21.174;2023-04-25T08:01:49;10.70;99.90
18408;DHT22;9330;52.210;21.174;2023-04-25T08:04:16;10.70;99.90
18408;DHT22;9330;52.210;21.174;2023-04-25T08:06:43;10.80;99.90
18408;DHT22;9330;52.210;21.174;2023-04-25T08:09:12;10.80;99.90
18408;DHT22;9330;52.210;21.174;2023-04-25T08:11:39;10.90;99.90
18408;DHT22;9330;52.210;21.174;2023-04-25T08:14:06;10.90;99.90
18408;DHT22;9330;52.210;21.174;2023-04-25T08:16:33;11.10;99.90
18408;DHT22;9330;52.210;21.174;2023-04-25T08:19:00;11.10;99.90
18408;DHT22;9330;52.210;21.174;2023-04-25T08:21:27;11.00;99.90
18408;DHT22;9330;52.210;21.174;2023-04-25T08:23:54;11.10;99.90
18408;DHT22;9330;52.210;21.174;2023-04-25T08:26:22;11.10;99.90
18408;DHT22;9330;52.210;21.174;2023-04-25T08:28:49;11.20;99.90
18408;DHT22;9330;52.210;21.174;2023-04-25T08:31:17;11.10;99.90
18408;DHT22;9330;52.210;21.174;2023-04-25T08:33:44;11.00;99.90
18408;DHT22;9330;52.210;21.174;2023-04-25T08:36:11;11.00;99.90
18408;DHT22;9330;52.210;21.174;2023-04-25T08:38:38;11.00;99.90
18408;DHT22;9330;52.210;21.174;2023-04-25T08:41:05;11.00;99.90
18408;DHT22;9330;52.210;21.174;2023-04-25T08:43:34;11.10;99.90
18408;DHT22;9330;52.210;21.174;2023-04-25T08:46:01;10.90;99.90
18408;DHT22;9330;52.210;21.174;2023-04-25T08:48:32;10.90;99.90
18408;DHT22;9330;52.210;21.174;2023-04-25T08:51:02;10.90;99.90
18408;DHT22;9330;52.210;21.174;2023-04-25T08:53:30;10.90;99.90
18408;DHT22;9330;52.210;21.174;2023-04-25T08:55:59;10.80;99.90
18408;DHT22;9330;52.210;21.174;2023-04-25T08:58:27;10.90;99.90
18408;DHT22;9330;52.210;21.174;2023-04-25T09:00:56;10.90;99.90
18408;DHT22;9330;52.210;21.174;2023-04-25T09:03:23;10.90;99.90
18408;DHT22;9330;52.210;21.174;2023-04-25T09:05:51;10.80;99.90
18408;DHT22;9330;52.210;21.174;2023-04-25T09:08:18;10.90;99.90
18408;DHT22;9330;52.210;21.174;2023-04-25T09:10:45;10.80;99.90
18408;DHT22;9330;52.210;21.174;2023-04-25T09:13:14;10.80;99.90
18408;DHT22;9330;52.210;21.174;2023-04-25T09:15:48;10.70;99.90
18408;DHT22;9330;52.210;21.174;2023-04-25T09:18:28;10.70;99.90
18408;DHT22;9330;52.210;21.174;2023-04-25T09:20:57;10.50;99.90
18408;DHT22;9330;52.210;21.174;2023-04-25T09:23:24;10.60;99.90
18408;DHT22;9330;52.210;21.174;2023-04-25T09:25:53;10.70;99.90
18408;DHT22;9330;52.210;21.174;2023-04-25T09:28:24;10.70;99.90
18408;DHT22;9330;52.210;21.174;2023-04-25T09:30:55;10.60;99.90
18408;DHT22;9330;52.210;21.174;2023-04-25T09:33:29;10.60;99.90
18408;DHT22;9330;52.210;21.174;2023-04-25T09:36:02;10.60;99.90
18408;DHT22;9330;52.210;21.174;2023-04-25T09:38:30;10.70;99.90
18408;DHT22;9330;52.210;21.174;2023-04-25T09:40:58;10.60;99.90
18408;DHT22;9330;52.210;21.174;2023-04-25T09:43:26;10.60;99.90
18408;DHT22;9330;52.210;21.174;2023-04-25T09:45:54;10.50;99.90
18408;DHT22;9330;52.210;21.174;2023-04-25T09:48:24;10.60;99.90
18408;DHT22;9330;52.210;21.174;2023-04-25T09:51:06;10.40;99.90
18408;DHT22;9330;52.210;21.174;2023-04-25T09:53:34;10.40;99.90
18408;DHT22;9330;52.210;21.174;2023-04-25T09:56:03;10.30;99.90
18408;DHT22;9330;52.210;21.174;2023-04-25T09:58:31;10.40;99.90
18408;DHT22;9330;52.210;21.174;2023-04-25T10:01:00;10.30;99.90
18408;DHT22;9330;52.210;21.174;2023-04-25T10:03:29;10.30;99.90
18408;DHT22;9330;52.210;21.174;2023-04-25T10:05:59;10.30;99.90
18408;DHT22;9330;52.210;21.174;2023-04-25T10:08:31;10.20;99.90
18408;DHT22;9330;52.210;21.174;2023-04-25T10:11:00;10.30;99.90
18408;DHT22;9330;52.210;21.174;2023-04-25T10:13:28;10.20;99.90
18408;DHT22;9330;52.210;21.174;2023-04-25T10:15:58;10.20;99.90
18408;DHT22;9330;52.210;21.174;2023-04-25T10:18:26;10.20;99.90
18408;DHT22;9330;52.210;21.174;2023-04-25T10:33:43;10.70;99.90
18408;DHT22;9330;52.210;21.174;2023-04-25T10:36:11;10.20;99.90
18408;DHT22;9330;52.210;21.174;2023-04-25T10:38:39;10.30;99.90
18408;DHT22;9330;52.210;21.174;2023-04-25T10:41:07;10.40;99.90
18408;DHT22;9330;52.210;21.174;2023-04-25T10:43:36;10.40;99.90
18408;DHT22;9330;52.210;21.174;2023-04-25T10:46:14;10.40;99.90
18408;DHT22;9330;52.210;21.174;2023-04-25T10:48:46;10.40;99.90
18408;DHT22;9330;52.210;21.174;2023-04-25T10:51:22;10.50;99.90
18408;DHT22;9330;52.210;21.174;2023-04-25T10:54:00;10.60;99.90
18408;DHT22;9330;52.210;21.174;2023-04-25T10:56:28;10.40;99.90
18408;DHT22;9330;52.210;21.174;2023-04-25T10:59:06;10.50;99.90
18408;DHT22;9330;52.210;21.174;2023-04-25T11:01:38;10.50;99.90
18408;DHT22;9330;52.210;21.174;2023-04-25T11:04:21;10.50;99.90
18408;DHT22;9330;52.210;21.174;2023-04-25T11:07:00;10.60;99.90
18408;DHT22;9330;52.210;21.174;2023-04-25T11:09:27;10.40;99.90
18408;DHT22;9330;52.210;21.174;2023-04-25T11:11:56;10.60;99.90
18408;DHT22;9330;52.210;21.174;2023-04-25T11:14:23;10.60;99.90
18408;DHT22;9330;52.210;21.174;2023-04-25T11:16:53;10.40;99.90
18408;DHT22;9330;52.210;21.174;2023-04-25T11:19:25;10.30;99.90
18408;DHT22;9330;52.210;21.174;2023-04-25T11:21:55;10.50;99.90
18408;DHT22;9330;52.210;21.174;2023-04-25T11:24:26;10.40;99.90
18408;DHT22;9330;52.210;21.174;2023-04-25T11:26:53;10.40;99.90
18408;DHT22;9330;52.210;21.174;2023-04-25T11:29:22;10.40;99.90
18408;DHT22;9330;52.210;21.174;2023-04-25T11:31:49;10.40;99.90
18408;DHT22;9330;52.210;21.174;2023-04-25T11:34:17;10.40;99.90
18408;DHT22;9330;52.210;21.174;2023-04-25T11:36:46;10.40;99.90
18408;DHT22;9330;52.210;21.174;2023-04-25T11:39:13;10.50;99.90
18408;DHT22;9330;52.210;21.174;2023-04-25T11:41:41;10.50;99.90
18408;DHT22;9330;52.210;21.174;2023-04-25T11:44:08;10.50;99.90
18408;DHT22;9330;52.210;21.174;2023-04-25T11:46:35;10.50;99.90
18408;DHT22;9330;52.210;21.174;2023-04-25T11:49:02;10.40;99.90
18408;DHT22;9330;52.210;21.174;2023-04-25T11:51:29;10.50;99.90
18408;DHT22;9330;52.210;21.174;2023-04-25T11:53:58;10.50;99.90
18408;DHT22;9330;52.210;21.174;2023-04-25T11:56:25;10.50;99.90
18408;DHT22;9330;52.210;21.174;2023-04-25T11:58:57;10.60;99.90
18408;DHT22;9330;52.210;21.174;2023-04-25T12:01:28;10.60;99.90
18408;DHT22;9330;52.210;21.174;2023-04-25T12:03:55;10.50;99.90
18408;DHT22;9330;52.210;21.174;2023-04-25T12:06:26;10.60;99.90
18408;DHT22;9330;52.210;21.174;2023-04-25T12:09:02;10.80;99.90
18408;DHT22;9330;52.210;21.174;2023-04-25T12:11:30;10.60;99.90
18408;DHT22;9330;52.210;21.174;2023-04-25T12:14:02;10.50;99.90
18408;DHT22;9330;52.210;21.174;2023-04-25T12:16:39;10.80;99.90
18408;DHT22;9330;52.210;21.174;2023-04-25T12:19:06;10.50;99.90
18408;DHT22;9330;52.210;21.174;2023-04-25T12:21:33;10.60;99.90
18408;DHT22;9330;52.210;21.174;2023-04-25T12:24:11;10.60;99.90
18408;DHT22;9330;52.210;21.174;2023-04-25T12:26:50;10.60;99.90
18408;DHT22;9330;52.210;21.174;2023-04-25T12:29:22;10.70;99.90
18408;DHT22;9330;52.210;21.174;2023-04-25T12:31:50;10.60;99.90
18408;DHT22;9330;52.210;21.174;2023-04-25T12:34:17;10.60;99.90
18408;DHT22;9330;52.210;21.174;2023-04-25T12:36:44;10.80;99.90
18408;DHT22;9330;52.210;21.174;2023-04-25T12:39:16;10.70;99.90
18408;DHT22;9330;52.210;21.174;2023-04-25T12:41:44;10.80;99.90
18408;DHT22;9330;52.210;21.174;2023-04-25T12:44:12;10.80;99.90
18408;DHT22;9330;52.210;21.174;2023-04-25T12:46:39;10.80;99.90
18408;DHT22;9330;52.210;21.174;2023-04-25T12:49:07;10.90;99.90
18408;DHT22;9330;52.210;21.174;2023-04-25T12:51:34;10.90;99.90
18408;DHT22;9330;52.210;21.174;2023-04-25T12:54:02;10.90;99.90
18408;DHT22;9330;52.210;21.174;2023-04-25T12:56:31;10.90;99.90
18408;DHT22;9330;52.210;21.174;2023-04-25T12:58:58;11.00;99.90
18408;DHT22;9330;52.210;21.174;2023-04-25T13:01:25;11.00;99.90
18408;DHT22;9330;52.210;21.174;2023-04-25T13:03:52;11.00;99.90
18408;DHT22;9330;52.210;21.174;2023-04-25T13:06:20;11.00;99.90
18408;DHT22;9330;52.210;21.174;2023-04-25T13:08:47;11.00;99.90
18408;DHT22;9330;52.210;21.174;2023-04-25T13:11:14;11.10;99.90
18408;DHT22;9330;52.210;21.174;2023-04-25T13:13:44;10.90;99.90
18408;DHT22;9330;52.210;21.174;2023-04-25T13:16:10;11.00;99.90
18408;DHT22;9330;52.210;21.174;2023-04-25T13:18:39;11.10;99.90
18408;DHT22;9330;52.210;21.174;2023-04-25T13:21:06;11.00;99.90
18408;DHT22;9330;52.210;21.174;2023-04-25T13:23:33;11.00;99.90
18408;DHT22;9330;52.210;21.174;2023-04-25T13:26:00;11.00;99.90
18408;DHT22;9330;52.210;21.174;2023-04-25T13:28:27;11.10;99.90
18408;DHT22;9330;52.210;21.174;2023-04-25T13:30:56;11.20;99.90
18408;DHT22;9330;52.210;21.174;2023-04-25T13:33:23;11.10;99.90
18408;DHT22;9330;52.210;21.174;2023-04-25T13:35:51;10.90;99.90
18408;DHT22;9330;52.210;21.174;2023-04-25T13:38:22;10.80;99.90
18408;DHT22;9330;52.210;21.174;2023-04-25T13:40:50;10.90;99.90
18408;DHT22;9330;52.210;21.174;2023-04-25T13:43:18;10.90;99.90
18408;DHT22;9330;52.210;21.174;2023-04-25T13:45:46;10.80;99.90
18408;DHT22;9330;52.210;21.174;2023-04-25T13:48:14;10.90;99.90
18408;DHT22;9330;52.210;21.174;2023-04-25T13:50:41;10.90;99.90
18408;DHT22;9330;52.210;21.174;2023-04-25T13:53:08;10.80;99.90
18408;DHT22;9330;52.210;21.174;2023-04-25T13:55:35;10.80;99.90
18408;DHT22;9330;52.210;21.174;2023-04-25T13:58:03;10.80;99.90
18408;DHT22;9330;52.210;21.174;2023-04-25T14:00:35;10.80;99.90
18408;DHT22;9330;52.210;21.174;2023-04-25T14:03:03;10.70;99.90
18408;DHT22;9330;52.210;21.174;2023-04-25T14:05:34;10.70;99.90
18408;DHT22;9330;52.210;21.174;2023-04-25T14:08:06;10.70;99.90
18408;DHT22;9330;52.210;21.174;2023-04-25T14:10:33;10.70;99.90
18408;DHT22;9330;52.210;21.174;2023-04-25T14:13:01;10.70;99.90
18408;DHT22;9330;52.210;21.174;2023-04-25T14:15:29;10.80;99.90
18408;DHT22;9330;52.210;21.174;2023-04-25T14:17:56;10.60;99.90
18408;DHT22;9330;52.210;21.174;2023-04-25T14:20:23;10.60;99.90
18408;DHT22;9330;52.210;21.174;2023-04-25T14:22:52;10.60;99.90
18408;DHT22;9330;52.210;21.174;2023-04-25T14:25:21;10.60;99.90
18408;DHT22;9330;52.210;21.174;2023-04-25T14:27:48;10.50;99.90
18408;DHT22;9330;52.210;21.174;2023-04-25T14:30:17;10.60;99.90
18408;DHT22;9330;52.210;21.174;2023-04-25T14:32:44;10.60;99.90
18408;DHT22;9330;52.210;21.174;2023-04-25T14:35:11;10.50;99.90
18408;DHT22;9330;52.210;21.174;2023-04-25T14:37:39;10.40;99.90
18408;DHT22;9330;52.210;21.174;2023-04-25T14:40:08;10.50;99.90
18408;DHT22;9330;52.210;21.174;2023-04-25T14:42:38;10.30;99.90
18408;DHT22;9330;52.210;21.174;2023-04-25T14:45:06;10.40;99.90
18408;DHT22;9330;52.210;21.174;2023-04-25T14:47:34;10.30;99.90
18408;DHT22;9330;52.210;21.174;2023-04-25T14:50:01;10.20;99.90
18408;DHT22;9330;52.210;21.174;2023-04-25T14:52:29;10.30;99.90
18408;DHT22;9330;52.210;21.174;2023-04-25T14:54:57;10.20;99.90
18408;DHT22;9330;52.210;21.174;2023-04-25T14:57:26;10.20;99.90
18408;DHT22;9330;52.210;21.174;2023-04-25T14:59:53;10.20;99.90
18408;DHT22;9330;52.210;21.174;2023-04-25T15:02:20;10.10;99.90
18408;DHT22;9330;52.210;21.174;2023-04-25T15:04:48;10.10;99.90
18408;DHT22;9330;52.210;21.174;2023-04-25T15:07:15;10.10;99.90
18408;DHT22;9330;52.210;21.174;2023-04-25T15:09:42;10.20;99.90
18408;DHT22;9330;52.210;21.174;2023-04-25T15:12:09;10.10;99.90
18408;DHT22;9330;52.210;21.174;2023-04-25T15:14:38;10.00;99.90
18408;DHT22;9330;52.210;21.174;2023-04-25T15:17:05;10.20;99.90
18408;DHT22;9330;52.210;21.174;2023-04-25T15:19:33;10.10;99.90
18408;DHT22;9330;52.210;21.174;2023-04-25T15:22:00;10.10;99.90
18408;DHT22;9330;52.210;21.174;2023-04-25T15:24:29;10.10;99.90
18408;DHT22;9330;52.210;21.174;2023-04-25T15:26:56;10.20;99.90
18408;DHT22;9330;52.210;21.174;2023-04-25T15:29:23;10.10;99.90
18408;DHT22;9330;52.210;21.174;2023-04-25T15:31:53;10.10;99.90
18408;DHT22;9330;52.210;21.174;2023-04-25T15:34:20;10.00;99.90
18408;DHT22;9330;52.210;21.174;2023-04-25T15:36:47;10.10;99.90
18408;DHT22;9330;52.210;21.174;2023-04-25T15:39:14;10.10;99.90
18408;DHT22;9330;52.210;21.174;2023-04-25T15:41:41;10.00;99.90
18408;DHT22;9330;52.210;21.174;2023-04-25T15:44:08;10.00;99.90
18408;DHT22;9330;52.210;21.174;2023-04-25T15:46:35;9.80;99.90
18408;DHT22;9330;52.210;21.174;2023-04-25T15:49:03;9.90;99.90
18408;DHT22;9330;52.210;21.174;2023-04-25T15:51:30;9.80;99.90
18408;DHT22;9330;52.210;21.174;2023-04-25T15:53:58;9.90;99.90
18408;DHT22;9330;52.210;21.174;2023-04-25T15:56:26;9.90;99.90
18408;DHT22;9330;52.210;21.174;2023-04-25T15:58:53;9.80;99.90
18408;DHT22;9330;52.210;21.174;2023-04-25T16:01:20;9.80;99.90